sensor_id;sensor_type;location;lat;lon;timestamp;P1;durP1;ratioP1;P2;durP2;ratioP2
5955;SDS011;3004;48.080;11.600;2023-09-19T00:00:22;90.93;;;6.20;;
5955;SDS011;3004;48.080;11.600;2023-09-19T00:02:52;90.77;;;5.77;;
5955;SDS011;3004;48.080;11.600;2023-09-19T00:05:19;90.63;;;5.77;;
5955;SDS011;3004;48.080;11.600;2023-09-19T00:07:49;90.97;;;5.80;;
5955;SDS011;3004;48.080;11.600;2023-09-19T00:10:19;90.70;;;5.80;;
5955;SDS011;3004;48.080;11.600;2023-09-19T00:12:47;90.50;;;5.80;;
5955;SDS011;3004;48.080;11.600;2023-09-19T00:15:14;90.77;;;5.73;;
5955;SDS011;3004;48.080;11.600;2023-09-19T00:17:44;90.77;;;5.80;;
5955;SDS011;3004;48.080;11.600;2023-09-19T00:20:12;90.87;;;5.77;;
5955;SDS011;3004;48.080;11.600;2023-09-19T00:22:43;91.13;;;5.70;;
5955;SDS011;3004;48.080;11.600;2023-09-19T00:25:11;90.90;;;5.80;;
5955;SDS011;3004;48.080;11.600;2023-09-19T00:27:40;90.87;;;5.80;;
5955;SDS011;3004;48.080;11.600;2023-09-19T00:30:10;90.97;;;5.73;;
5955;SDS011;3004;48.080;11.600;2023-09-19T00:32:41;90.57;;;5.80;;
5955;SDS011;3004;48.080;11.600;2023-09-19T00:35:14;90.57;;;5.77;;
5955;SDS011;3004;48.080;11.600;2023-09-19T00:37:41;90.87;;;5.80;;
5955;SDS011;3004;48.080;11.600;2023-09-19T00:40:10;90.47;;;5.87;;
5955;SDS011;3004;48.080;11.600;2023-09-19T00:42:40;90.77;;;5.80;;
5955;SDS011;3004;48.080;11.600;2023-09-19T00:45:08;90.87;;;6.20;;
5955;SDS011;3004;48.080;11.600;2023-09-19T00:47:37;90.67;;;5.80;;
5955;SDS011;3004;48.080;11.600;2023-09-19T00:50:05;90.30;;;5.77;;
5955;SDS011;3004;48.080;11.600;2023-09-19T00:52:37;90.07;;;5.83;;
5955;SDS011;3004;48.080;11.600;2023-09-19T00:55:05;90.00;;;5.80;;
5955;SDS011;3004;48.080;11.600;2023-09-19T00:57:36;89.80;;;5.67;;
5955;SDS011;3004;48.080;11.600;2023-09-19T01:00:05;106.03;;;6.20;;
5955;SDS011;3004;48.080;11.600;2023-09-19T01:02:33;90.07;;;5.70;;
5955;SDS011;3004;48.080;11.600;2023-09-19T01:05:02;90.10;;;5.73;;
5955;SDS011;3004;48.080;11.600;2023-09-19T01:07:32;90.03;;;5.73;;
5955;SDS011;3004;48.080;11.600;2023-09-19T01:10:01;90.03;;;5.77;;
5955;SDS011;3004;48.080;11.600;2023-09-19T01:12:33;89.30;;;5.63;;
5955;SDS011;3004;48.080;11.600;2023-09-19T01:15:15;89.37;;;5.70;;
5955;SDS011;3004;48.080;11.600;2023-09-19T01:17:49;89.47;;;5.90;;
5955;SDS011;3004;48.080;11.600;2023-09-19T01:20:26;89.97;;;6.00;;
5955;SDS011;3004;48.080;11.600;2023-09-19T01:23:02;89.47;;;5.60;;
5955;SDS011;3004;48.080;11.600;2023-09-19T01:28:39;89.57;;;5.60;;
5955;SDS011;3004;48.080;11.600;2023-09-19T01:31:21;89.17;;;5.60;;
5955;SDS011;3004;48.080;11.600;2023-09-19T01:33:53;88.83;;;5.53;;
5955;SDS011;3004;48.080;11.600;2023-09-19T01:36:22;89.23;;;5.57;;
5955;SDS011;3004;48.080;11.600;2023-09-19T01:38:49;88.97;;;5.67;;
5955;SDS011;3004;48.080;11.600;2023-09-19T01:41:17;88.97;;;5.60;;
5955;SDS011;3004;48.080;11.600;2023-09-19T01:43:48;88.93;;;5.80;;
5955;SDS011;3004;48.080;11.600;2023-09-19T01:46:18;88.80;;;5.60;;
5955;SDS011;3004;48.080;11.600;2023-09-19T01:48:54;89.37;;;5.60;;
5955;SDS011;3004;48.080;11.600;2023-09-19T01:51:32;89.17;;;5.53;;
5955;SDS011;3004;48.080;11.600;2023-09-19T01:54:03;88.87;;;5.57;;
5955;SDS011;3004;48.080;11.600;2023-09-19T01:56:40;88.90;;;5.53;;
5955;SDS011;3004;48.080;11.600;2023-09-19T01:59:13;89.33;;;5.53;;
5955;SDS011;3004;48.080;11.600;2023-09-19T02:01:47;89.00;;;5.70;;
5955;SDS011;3004;48.080;11.600;2023-09-19T02:04:16;91.20;;;7.37;;
5955;SDS011;3004;48.080;11.600;2023-09-19T02:06:43;88.37;;;5.50;;
5955;SDS011;3004;48.080;11.600;2023-09-19T02:09:12;88.27;;;5.43;;
5955;SDS011;3004;48.080;11.600;2023-09-19T02:11:40;88.07;;;5.60;;
5955;SDS011;3004;48.080;11.600;2023-09-19T02:14:07;88.10;;;5.60;;
5955;SDS011;3004;48.080;11.600;2023-09-19T02:16:34;88.37;;;5.57;;
5955;SDS011;3004;48.080;11.600;2023-09-19T02:19:04;88.07;;;5.50;;
5955;SDS011;3004;48.080;11.600;2023-09-19T02:21:31;88.90;;;5.70;;
5955;SDS011;3004;48.080;11.600;2023-09-19T02:23:58;87.67;;;5.47;;
5955;SDS011;3004;48.080;11.600;2023-09-19T02:26:27;87.37;;;5.40;;
5955;SDS011;3004;48.080;11.600;2023-09-19T02:28:54;87.10;;;5.37;;
5955;SDS011;3004;48.080;11.600;2023-09-19T02:31:21;87.17;;;5.40;;
5955;SDS011;3004;48.080;11.600;2023-09-19T02:33:48;87.37;;;5.40;;
5955;SDS011;3004;48.080;11.600;2023-09-19T02:36:16;87.03;;;5.43;;
5955;SDS011;3004;48.080;11.600;2023-09-19T02:38:43;87.30;;;5.50;;
5955;SDS011;3004;48.080;11.600;2023-09-19T02:41:10;87.37;;;5.37;;
5955;SDS011;3004;48.080;11.600;2023-09-19T02:43:38;87.37;;;5.40;;
5955;SDS011;3004;48.080;11.600;2023-09-19T02:46:05;87.47;;;5.40;;
5955;SDS011;3004;48.080;11.600;2023-09-19T02:48:32;87.63;;;5.33;;
5955;SDS011;3004;48.080;11.600;2023-09-19T02:50:59;87.27;;;5.37;;
5955;SDS011;3004;48.080;11.600;2023-09-19T02:53:32;87.30;;;5.53;;
5955;SDS011;3004;48.080;11.600;2023-09-19T02:55:59;87.60;;;5.43;;
5955;SDS011;3004;48.080;11.600;2023-09-19T02:58:26;88.10;;;6.10;;
5955;SDS011;3004;48.080;11.600;2023-09-19T03:00:55;87.47;;;5.40;;
5955;SDS011;3004;48.080;11.600;2023-09-19T03:03:22;87.67;;;5.40;;
5955;SDS011;3004;48.080;11.600;2023-09-19T03:05:49;88.13;;;5.50;;
5955;SDS011;3004;48.080;11.600;2023-09-19T03:08:18;87.97;;;5.47;;
5955;SDS011;3004;48.080;11.600;2023-09-19T03:10:47;88.10;;;5.57;;
5955;SDS011;3004;48.080;11.600;2023-09-19T03:13:17;87.40;;;5.40;;
5955;SDS011;3004;48.080;11.600;2023-09-19T03:15:44;87.47;;;5.40;;
5955;SDS011;3004;48.080;11.600;2023-09-19T03:18:12;87.00;;;5.37;;
5955;SDS011;3004;48.080;11.600;2023-09-19T03:20:39;87.10;;;5.40;;
5955;SDS011;3004;48.080;11.600;2023-09-19T03:23:06;86.97;;;5.30;;
5955;SDS011;3004;48.080;11.600;2023-09-19T03:25:34;86.57;;;5.30;;
5955;SDS011;3004;48.080;11.600;2023-09-19T03:28:03;86.17;;;5.17;;
5955;SDS011;3004;48.080;11.600;2023-09-19T03:30:31;86.23;;;5.17;;
5955;SDS011;3004;48.080;11.600;2023-09-19T03:32:59;86.97;;;5.30;;
5955;SDS011;3004;48.080;11.600;2023-09-19T03:35:26;86.67;;;5.20;;
5955;SDS011;3004;48.080;11.600;2023-09-19T03:37:56;86.37;;;5.17;;
5955;SDS011;3004;48.080;11.600;2023-09-19T03:40:23;86.27;;;5.20;;
5955;SDS011;3004;48.080;11.600;2023-09-19T03:42:50;87.07;;;5.20;;
5955;SDS011;3004;48.080;11.600;2023-09-19T03:45:18;87.07;;;5.30;;
5955;SDS011;3004;48.080;11.600;2023-09-19T03:47:45;87.97;;;5.90;;
5955;SDS011;3004;48.080;11.600;2023-09-19T03:50:13;87.33;;;5.40;;
5955;SDS011;3004;48.080;11.600;2023-09-19T03:52:43;87.33;;;5.30;;
5955;SDS011;3004;48.080;11.600;2023-09-19T03:55:10;86.80;;;5.20;;
5955;SDS011;3004;48.080;11.600;2023-09-19T03:57:37;87.37;;;5.30;;
5955;SDS011;3004;48.080;11.600;2023-09-19T04:00:05;86.80;;;5.30;;
5955;SDS011;3004;48.080;11.600;2023-09-19T04:02:38;87.20;;;5.40;;
5955;SDS011;3004;48.080;11.600;2023-09-19T04:05:05;87.17;;;5.37;;
5955;SDS011;3004;48.080;11.600;2023-09-19T04:07:32;88.20;;;6.10;;
5955;SDS011;3004;48.080;11.600;2023-09-19T04:09:59;87.67;;;5.47;;
5955;SDS011;3004;48.080;11.600;2023-09-19T04:12:26;87.47;;;5.40;;
5955;SDS011;3004;48.080;11.600;2023-09-19T04:14:57;88.27;;;5.40;;
5955;SDS011;3004;48.080;11.600;2023-09-19T04:17:24;88.17;;;5.40;;
5955;SDS011;3004;48.080;11.600;2023-09-19T04:19:55;88.97;;;5.50;;
5955;SDS011;3004;48.080;11.600;2023-09-19T04:22:21;88.47;;;5.50;;
5955;SDS011;3004;48.080;11.600;2023-09-19T04:24:51;88.73;;;5.47;;
5955;SDS011;3004;48.080;11.600;2023-09-19T04:27:19;88.33;;;5.40;;
5955;SDS011;3004;48.080;11.600;2023-09-19T04:29:46;88.60;;;5.50;;
5955;SDS011;3004;48.080;11.600;2023-09-19T04:32:18;88.67;;;5.50;;
5955;SDS011;3004;48.080;11.600;2023-09-19T04:34:45;88.83;;;5.50;;
5955;SDS011;3004;48.080;11.600;2023-09-19T04:37:16;87.87;;;5.50;;
5955;SDS011;3004;48.080;11.600;2023-09-19T04:39:43;87.70;;;5.40;;
5955;SDS011;3004;48.080;11.600;2023-09-19T04:42:10;87.73;;;5.50;;
5955;SDS011;3004;48.080;11.600;2023-09-19T04:44:40;86.77;;;5.57;;
5955;SDS011;3004;48.080;11.600;2023-09-19T04:47:10;85.00;;;5.10;;
5955;SDS011;3004;48.080;11.600;2023-09-19T04:49:38;85.67;;;5.13;;
5955;SDS011;3004;48.080;11.600;2023-09-19T04:52:06;85.17;;;5.00;;
5955;SDS011;3004;48.080;11.600;2023-09-19T04:54:34;85.00;;;5.00;;
5955;SDS011;3004;48.080;11.600;2023-09-19T04:57:01;84.77;;;4.97;;
5955;SDS011;3004;48.080;11.600;2023-09-19T04:59:28;84.50;;;4.90;;
5955;SDS011;3004;48.080;11.600;2023-09-19T05:01:56;83.47;;;4.77;;
5955;SDS011;3004;48.080;11.600;2023-09-19T05:04:23;83.03;;;4.60;;
5955;SDS011;3004;48.080;11.600;2023-09-19T05:06:50;84.60;;;5.23;;
5955;SDS011;3004;48.080;11.600;2023-09-19T05:09:17;83.37;;;4.80;;
5955;SDS011;3004;48.080;11.600;2023-09-19T05:11:47;83.37;;;4.63;;
5955;SDS011;3004;48.080;11.600;2023-09-19T05:14:16;82.87;;;4.70;;
5955;SDS011;3004;48.080;11.600;2023-09-19T05:16:44;83.40;;;4.63;;
5955;SDS011;3004;48.080;11.600;2023-09-19T05:19:11;82.77;;;4.40;;
5955;SDS011;3004;48.080;11.600;2023-09-19T05:21:38;83.87;;;6.03;;
5955;SDS011;3004;48.080;11.600;2023-09-19T05:24:05;82.67;;;4.47;;
5955;SDS011;3004;48.080;11.600;2023-09-19T05:26:32;82.20;;;4.57;;
5955;SDS011;3004;48.080;11.600;2023-09-19T05:29:00;81.87;;;4.30;;
5955;SDS011;3004;48.080;11.600;2023-09-19T05:31:28;81.37;;;4.20;;
5955;SDS011;3004;48.080;11.600;2023-09-19T05:33:56;81.67;;;4.30;;
5955;SDS011;3004;48.080;11.600;2023-09-19T05:36:24;81.37;;;4.30;;
5955;SDS011;3004;48.080;11.600;2023-09-19T05:38:51;80.97;;;4.20;;
5955;SDS011;3004;48.080;11.600;2023-09-19T05:41:18;80.97;;;4.13;;
5955;SDS011;3004;48.080;11.600;2023-09-19T05:43:46;80.57;;;4.10;;
5955;SDS011;3004;48.080;11.600;2023-09-19T05:46:17;80.70;;;4.10;;
5955;SDS011;3004;48.080;11.600;2023-09-19T05:48:44;80.80;;;4.10;;
5955;SDS011;3004;48.080;11.600;2023-09-19T05:51:12;81.20;;;4.17;;
5955;SDS011;3004;48.080;11.600;2023-09-19T05:53:39;81.17;;;4.17;;
5955;SDS011;3004;48.080;11.600;2023-09-19T05:56:08;80.77;;;4.10;;
5955;SDS011;3004;48.080;11.600;2023-09-19T05:58:36;80.67;;;3.90;;
5955;SDS011;3004;48.080;11.600;2023-09-19T06:01:08;80.33;;;4.00;;
5955;SDS011;3004;48.080;11.600;2023-09-19T06:03:36;80.80;;;4.03;;
5955;SDS011;3004;48.080;11.600;2023-09-19T06:06:03;80.50;;;4.00;;
5955;SDS011;3004;48.080;11.600;2023-09-19T06:08:31;80.47;;;4.00;;
5955;SDS011;3004;48.080;11.600;2023-09-19T06:11:00;80.80;;;4.10;;
5955;SDS011;3004;48.080;11.600;2023-09-19T06:13:28;80.47;;;3.97;;
5955;SDS011;3004;48.080;11.600;2023-09-19T06:15:55;80.40;;;3.97;;
5955;SDS011;3004;48.080;11.600;2023-09-19T06:18:23;80.00;;;3.90;;
5955;SDS011;3004;48.080;11.600;2023-09-19T06:20:56;80.13;;;4.00;;
5955;SDS011;3004;48.080;11.600;2023-09-19T06:23:23;79.97;;;3.80;;
5955;SDS011;3004;48.080;11.600;2023-09-19T06:25:51;79.47;;;3.80;;
5955;SDS011;3004;48.080;11.600;2023-09-19T06:28:18;79.50;;;3.80;;
5955;SDS011;3004;48.080;11.600;2023-09-19T06:30:49;79.60;;;3.77;;
5955;SDS011;3004;48.080;11.600;2023-09-19T06:33:16;79.40;;;3.70;;
5955;SDS011;3004;48.080;11.600;2023-09-19T06:35:45;79.10;;;3.70;;
5955;SDS011;3004;48.080;11.600;2023-09-19T06:38:14;78.80;;;4.07;;
5955;SDS011;3004;48.080;11.600;2023-09-19T06:40:41;79.00;;;3.80;;
5955;SDS011;3004;48.080;11.600;2023-09-19T06:43:09;79.20;;;4.17;;
5955;SDS011;3004;48.080;11.600;2023-09-19T06:45:37;78.40;;;3.57;;
5955;SDS011;3004;48.080;11.600;2023-09-19T06:48:04;79.10;;;3.80;;
5955;SDS011;3004;48.080;11.600;2023-09-19T06:50:34;78.50;;;3.80;;
5955;SDS011;3004;48.080;11.600;2023-09-19T06:53:03;78.60;;;3.90;;
5955;SDS011;3004;48.080;11.600;2023-09-19T06:55:32;78.50;;;3.63;;
5955;SDS011;3004;48.080;11.600;2023-09-19T06:57:59;78.30;;;3.50;;
5955;SDS011;3004;48.080;11.600;2023-09-19T07:00:26;78.40;;;3.60;;
5955;SDS011;3004;48.080;11.600;2023-09-19T07:02:57;78.00;;;3.50;;
5955;SDS011;3004;48.080;11.600;2023-09-19T07:05:29;78.20;;;3.70;;
5955;SDS011;3004;48.080;11.600;2023-09-19T07:07:57;78.07;;;3.50;;
5955;SDS011;3004;48.080;11.600;2023-09-19T07:10:26;78.40;;;3.50;;
5955;SDS011;3004;48.080;11.600;2023-09-19T07:12:56;77.80;;;3.40;;
5955;SDS011;3004;48.080;11.600;2023-09-19T07:15:24;78.07;;;3.37;;
5955;SDS011;3004;48.080;11.600;2023-09-19T07:17:51;77.87;;;3.60;;
5955;SDS011;3004;48.080;11.600;2023-09-19T07:20:19;79.30;;;3.70;;
5955;SDS011;3004;48.080;11.600;2023-09-19T07:22:46;78.77;;;3.50;;
5955;SDS011;3004;48.080;11.600;2023-09-19T07:25:14;79.13;;;3.70;;
5955;SDS011;3004;48.080;11.600;2023-09-19T07:27:41;78.80;;;3.50;;
5955;SDS011;3004;48.080;11.600;2023-09-19T07:30:11;78.40;;;3.53;;
5955;SDS011;3004;48.080;11.600;2023-09-19T07:32:38;78.70;;;3.67;;
5955;SDS011;3004;48.080;11.600;2023-09-19T07:35:06;79.20;;;3.60;;
5955;SDS011;3004;48.080;11.600;2023-09-19T07:37:36;78.93;;;3.70;;
5955;SDS011;3004;48.080;11.600;2023-09-19T07:40:06;78.53;;;3.70;;
5955;SDS011;3004;48.080;11.600;2023-09-19T07:42:34;79.40;;;4.00;;
5955;SDS011;3004;48.080;11.600;2023-09-19T07:45:04;84.27;;;3.80;;
5955;SDS011;3004;48.080;11.600;2023-09-19T07:47:34;79.43;;;5.20;;
5955;SDS011;3004;48.080;11.600;2023-09-19T07:50:01;78.50;;;3.50;;
5955;SDS011;3004;48.080;11.600;2023-09-19T07:52:28;78.10;;;3.70;;
5955;SDS011;3004;48.080;11.600;2023-09-19T07:54:58;78.27;;;3.43;;
5955;SDS011;3004;48.080;11.600;2023-09-19T07:57:28;78.10;;;3.50;;
5955;SDS011;3004;48.080;11.600;2023-09-19T07:59:59;77.57;;;3.50;;
5955;SDS011;3004;48.080;11.600;2023-09-19T08:02:35;77.57;;;3.50;;
5955;SDS011;3004;48.080;11.600;2023-09-19T08:05:03;77.63;;;3.50;;
5955;SDS011;3004;48.080;11.600;2023-09-19T08:07:35;77.57;;;3.53;;
5955;SDS011;3004;48.080;11.600;2023-09-19T08:10:02;77.57;;;3.50;;
5955;SDS011;3004;48.080;11.600;2023-09-19T08:12:33;77.30;;;3.50;;
5955;SDS011;3004;48.080;11.600;2023-09-19T08:15:00;77.60;;;3.90;;
5955;SDS011;3004;48.080;11.600;2023-09-19T08:17:27;77.50;;;3.40;;
5955;SDS011;3004;48.080;11.600;2023-09-19T08:19:56;80.57;;;4.30;;
5955;SDS011;3004;48.080;11.600;2023-09-19T08:22:23;76.83;;;3.40;;
5955;SDS011;3004;48.080;11.600;2023-09-19T08:24:52;76.90;;;3.30;;
5955;SDS011;3004;48.080;11.600;2023-09-19T08:27:21;76.60;;;3.50;;
5955;SDS011;3004;48.080;11.600;2023-09-19T08:29:55;76.60;;;3.40;;
5955;SDS011;3004;48.080;11.600;2023-09-19T08:32:22;76.93;;;3.97;;
5955;SDS011;3004;48.080;11.600;2023-09-19T08:34:50;76.60;;;3.50;;
5955;SDS011;3004;48.080;11.600;2023-09-19T08:37:19;76.50;;;3.40;;
5955;SDS011;3004;48.080;11.600;2023-09-19T08:39:48;76.20;;;3.33;;
5955;SDS011;3004;48.080;11.600;2023-09-19T08:42:15;76.30;;;3.97;;
5955;SDS011;3004;48.080;11.600;2023-09-19T08:44:43;75.87;;;3.20;;
5955;SDS011;3004;48.080;11.600;2023-09-19T08:47:10;76.17;;;3.30;;
5955;SDS011;3004;48.080;11.600;2023-09-19T08:49:41;76.53;;;3.27;;
5955;SDS011;3004;48.080;11.600;2023-09-19T08:52:27;76.47;;;3.30;;
5955;SDS011;3004;48.080;11.600;2023-09-19T08:54:59;76.10;;;3.40;;
5955;SDS011;3004;48.080;11.600;2023-09-19T08:57:37;76.07;;;3.17;;
5955;SDS011;3004;48.080;11.600;2023-09-19T09:00:07;75.90;;;3.10;;
5955;SDS011;3004;48.080;11.600;2023-09-19T09:02:37;75.73;;;2.90;;
5955;SDS011;3004;48.080;11.600;2023-09-19T09:05:10;75.87;;;3.00;;
5955;SDS011;3004;48.080;11.600;2023-09-19T09:07:41;75.60;;;2.90;;
5955;SDS011;3004;48.080;11.600;2023-09-19T09:10:09;75.70;;;3.07;;
5955;SDS011;3004;48.080;11.600;2023-09-19T09:12:37;76.50;;;3.50;;
5955;SDS011;3004;48.080;11.600;2023-09-19T09:15:05;75.50;;;2.80;;
5955;SDS011;3004;48.080;11.600;2023-09-19T09:17:33;75.60;;;2.67;;
5955;SDS011;3004;48.080;11.600;2023-09-19T09:20:01;75.80;;;2.60;;
5955;SDS011;3004;48.080;11.600;2023-09-19T09:22:30;75.47;;;2.70;;
5955;SDS011;3004;48.080;11.600;2023-09-19T09:24:59;75.40;;;2.70;;
5955;SDS011;3004;48.080;11.600;2023-09-19T09:27:32;75.80;;;2.63;;
5955;SDS011;3004;48.080;11.600;2023-09-19T09:30:01;75.50;;;2.40;;
5955;SDS011;3004;48.080;11.600;2023-09-19T09:32:30;75.43;;;2.30;;
5955;SDS011;3004;48.080;11.600;2023-09-19T09:35:00;75.63;;;2.50;;
5955;SDS011;3004;48.080;11.600;2023-09-19T09:37:30;75.40;;;2.50;;
5955;SDS011;3004;48.080;11.600;2023-09-19T09:39:57;75.80;;;2.50;;
5955;SDS011;3004;48.080;11.600;2023-09-19T09:42:44;75.47;;;2.57;;
5955;SDS011;3004;48.080;11.600;2023-09-19T09:45:12;75.50;;;2.60;;
5955;SDS011;3004;48.080;11.600;2023-09-19T09:47:56;75.90;;;2.40;;
5955;SDS011;3004;48.080;11.600;2023-09-19T09:50:26;75.93;;;2.40;;
5955;SDS011;3004;48.080;11.600;2023-09-19T09:53:02;76.10;;;2.80;;
5955;SDS011;3004;48.080;11.600;2023-09-19T09:55:56;76.07;;;2.20;;
5955;SDS011;3004;48.080;11.600;2023-09-19T09:58:24;75.90;;;2.33;;
5955;SDS011;3004;48.080;11.600;2023-09-19T10:00:54;76.37;;;2.70;;
5955;SDS011;3004;48.080;11.600;2023-09-19T10:03:31;75.60;;;2.30;;
5955;SDS011;3004;48.080;11.600;2023-09-19T10:06:05;76.03;;;2.40;;
5955;SDS011;3004;48.080;11.600;2023-09-19T10:08:58;75.70;;;2.30;;
5955;SDS011;3004;48.080;11.600;2023-09-19T10:11:42;75.90;;;2.30;;
5955;SDS011;3004;48.080;11.600;2023-09-19T10:14:11;75.83;;;2.30;;
5955;SDS011;3004;48.080;11.600;2023-09-19T10:16:45;76.40;;;2.30;;
5955;SDS011;3004;48.080;11.600;2023-09-19T10:19:15;75.83;;;2.30;;
5955;SDS011;3004;48.080;11.600;2023-09-19T10:21:51;76.27;;;2.27;;
5955;SDS011;3004;48.080;11.600;2023-09-19T10:24:22;76.00;;;2.33;;
5955;SDS011;3004;48.080;11.600;2023-09-19T10:26:51;75.60;;;2.10;;
5955;SDS011;3004;48.080;11.600;2023-09-19T10:29:19;75.57;;;2.20;;
5955;SDS011;3004;48.080;11.600;2023-09-19T10:31:48;75.77;;;2.20;;
5955;SDS011;3004;48.080;11.600;2023-09-19T10:34:19;75.90;;;2.10;;
5955;SDS011;3004;48.080;11.600;2023-09-19T10:36:51;75.90;;;2.20;;
5955;SDS011;3004;48.080;11.600;2023-09-19T10:39:19;75.30;;;2.33;;
5955;SDS011;3004;48.080;11.600;2023-09-19T10:41:49;76.00;;;2.43;;
5955;SDS011;3004;48.080;11.600;2023-09-19T10:44:21;75.77;;;2.00;;
5955;SDS011;3004;48.080;11.600;2023-09-19T10:46:53;75.90;;;2.00;;
5955;SDS011;3004;48.080;11.600;2023-09-19T10:49:22;75.30;;;2.30;;
5955;SDS011;3004;48.080;11.600;2023-09-19T10:51:51;75.87;;;2.10;;
5955;SDS011;3004;48.080;11.600;2023-09-19T10:54:23;75.73;;;2.20;;
5955;SDS011;3004;48.080;11.600;2023-09-19T10:56:55;75.90;;;2.00;;
5955;SDS011;3004;48.080;11.600;2023-09-19T10:59:24;76.60;;;2.30;;
5955;SDS011;3004;48.080;11.600;2023-09-19T11:01:57;76.00;;;2.10;;
5955;SDS011;3004;48.080;11.600;2023-09-19T11:04:26;75.90;;;2.10;;
5955;SDS011;3004;48.080;11.600;2023-09-19T11:06:59;76.43;;;2.17;;
5955;SDS011;3004;48.080;11.600;2023-09-19T11:09:46;76.20;;;2.10;;
5955;SDS011;3004;48.080;11.600;2023-09-19T11:18:52;75.87;;;2.10;;
5955;SDS011;3004;48.080;11.600;2023-09-19T11:24:29;75.90;;;2.00;;
5955;SDS011;3004;48.080;11.600;2023-09-19T11:27:11;76.60;;;2.10;;
5955;SDS011;3004;48.080;11.600;2023-09-19T11:29:43;76.20;;;2.00;;
5955;SDS011;3004;48.080;11.600;2023-09-19T11:32:11;76.70;;;2.10;;
5955;SDS011;3004;48.080;11.600;2023-09-19T11:34:45;76.23;;;2.00;;
5955;SDS011;3004;48.080;11.600;2023-09-19T11:40:32;75.97;;;1.97;;
5955;SDS011;3004;48.080;11.600;2023-09-19T11:46:06;76.40;;;1.90;;
5955;SDS011;3004;48.080;11.600;2023-09-19T11:48:34;76.07;;;2.07;;
5955;SDS011;3004;48.080;11.600;2023-09-19T11:53:55;75.87;;;2.00;;
5955;SDS011;3004;48.080;11.600;2023-09-19T11:56:25;76.20;;;2.20;;
5955;SDS011;3004;48.080;11.600;2023-09-19T11:58:54;75.33;;;1.90;;
5955;SDS011;3004;48.080;11.600;2023-09-19T12:01:25;76.77;;;2.23;;
5955;SDS011;3004;48.080;11.600;2023-09-19T12:03:57;75.87;;;1.90;;
5955;SDS011;3004;48.080;11.600;2023-09-19T12:06:27;76.17;;;2.00;;
5955;SDS011;3004;48.080;11.600;2023-09-19T12:08:57;76.20;;;1.80;;
5955;SDS011;3004;48.080;11.600;2023-09-19T12:11:27;75.77;;;1.90;;
5955;SDS011;3004;48.080;11.600;2023-09-19T12:13:59;76.10;;;2.00;;
5955;SDS011;3004;48.080;11.600;2023-09-19T12:16:28;76.30;;;2.10;;
5955;SDS011;3004;48.080;11.600;2023-09-19T12:19:20;76.07;;;2.00;;
5955;SDS011;3004;48.080;11.600;2023-09-19T12:21:55;75.87;;;2.00;;
5955;SDS011;3004;48.080;11.600;2023-09-19T12:24:29;76.20;;;1.90;;
5955;SDS011;3004;48.080;11.600;2023-09-19T12:27:00;76.30;;;2.17;;
5955;SDS011;3004;48.080;11.600;2023-09-19T12:29:29;76.20;;;2.00;;
5955;SDS011;3004;48.080;11.600;2023-09-19T12:31:58;76.60;;;2.00;;
5955;SDS011;3004;48.080;11.600;2023-09-19T12:34:29;75.97;;;1.90;;
5955;SDS011;3004;48.080;11.600;2023-09-19T12:37:03;76.20;;;1.97;;
5955;SDS011;3004;48.080;11.600;2023-09-19T12:39:36;76.07;;;2.00;;
5955;SDS011;3004;48.080;11.600;2023-09-19T12:42:06;76.50;;;1.80;;
5955;SDS011;3004;48.080;11.600;2023-09-19T12:44:37;76.57;;;2.00;;
5955;SDS011;3004;48.080;11.600;2023-09-19T12:47:10;76.40;;;1.90;;
5955;SDS011;3004;48.080;11.600;2023-09-19T12:52:43;76.47;;;2.00;;
5955;SDS011;3004;48.080;11.600;2023-09-19T12:55:22;76.37;;;2.10;;
5955;SDS011;3004;48.080;11.600;2023-09-19T12:57:57;76.80;;;2.10;;
5955;SDS011;3004;48.080;11.600;2023-09-19T13:00:33;76.60;;;1.80;;
5955;SDS011;3004;48.080;11.600;2023-09-19T13:05:57;76.63;;;2.10;;
5955;SDS011;3004;48.080;11.600;2023-09-19T13:08:27;76.17;;;1.90;;
5955;SDS011;3004;48.080;11.600;2023-09-19T13:11:00;76.63;;;2.00;;
5955;SDS011;3004;48.080;11.600;2023-09-19T13:13:36;77.00;;;2.00;;
5955;SDS011;3004;48.080;11.600;2023-09-19T13:16:09;75.97;;;2.10;;
5955;SDS011;3004;48.080;11.600;2023-09-19T13:18:45;75.60;;;2.13;;
5955;SDS011;3004;48.080;11.600;2023-09-19T13:21:16;77.00;;;2.30;;
5955;SDS011;3004;48.080;11.600;2023-09-19T13:23:53;76.90;;;2.10;;
5955;SDS011;3004;48.080;11.600;2023-09-19T13:26:24;76.50;;;2.00;;
5955;SDS011;3004;48.080;11.600;2023-09-19T13:28:57;76.90;;;2.20;;
5955;SDS011;3004;48.080;11.600;2023-09-19T13:31:24;76.93;;;1.83;;
5955;SDS011;3004;48.080;11.600;2023-09-19T13:33:52;76.80;;;2.00;;
5955;SDS011;3004;48.080;11.600;2023-09-19T13:36:19;75.40;;;2.00;;
5955;SDS011;3004;48.080;11.600;2023-09-19T13:38:46;77.00;;;2.20;;
5955;SDS011;3004;48.080;11.600;2023-09-19T13:41:14;77.00;;;3.07;;
5955;SDS011;3004;48.080;11.600;2023-09-19T13:43:41;77.20;;;2.40;;
5955;SDS011;3004;48.080;11.600;2023-09-19T13:46:14;76.80;;;2.10;;
5955;SDS011;3004;48.080;11.600;2023-09-19T13:48:44;75.97;;;2.10;;
5955;SDS011;3004;48.080;11.600;2023-09-19T13:51:12;76.70;;;2.10;;
5955;SDS011;3004;48.080;11.600;2023-09-19T13:53:40;76.67;;;2.10;;
5955;SDS011;3004;48.080;11.600;2023-09-19T13:56:06;76.67;;;2.30;;
5955;SDS011;3004;48.080;11.600;2023-09-19T13:58:34;76.70;;;2.13;;
5955;SDS011;3004;48.080;11.600;2023-09-19T14:01:01;75.83;;;2.10;;
5955;SDS011;3004;48.080;11.600;2023-09-19T14:03:30;76.90;;;2.00;;
5955;SDS011;3004;48.080;11.600;2023-09-19T14:06:05;76.10;;;2.00;;
5955;SDS011;3004;48.080;11.600;2023-09-19T14:08:34;76.23;;;2.10;;
5955;SDS011;3004;48.080;11.600;2023-09-19T14:11:06;76.70;;;2.20;;
5955;SDS011;3004;48.080;11.600;2023-09-19T14:13:33;76.80;;;2.20;;
5955;SDS011;3004;48.080;11.600;2023-09-19T14:16:02;76.90;;;2.60;;
5955;SDS011;3004;48.080;11.600;2023-09-19T14:18:33;76.30;;;2.20;;
5955;SDS011;3004;48.080;11.600;2023-09-19T14:21:04;76.20;;;2.07;;
5955;SDS011;3004;48.080;11.600;2023-09-19T14:23:38;76.67;;;2.10;;
5955;SDS011;3004;48.080;11.600;2023-09-19T14:26:08;75.47;;;2.40;;
5955;SDS011;3004;48.080;11.600;2023-09-19T14:28:41;76.20;;;2.00;;
5955;SDS011;3004;48.080;11.600;2023-09-19T14:31:10;75.83;;;2.20;;
5955;SDS011;3004;48.080;11.600;2023-09-19T14:33:39;77.00;;;2.20;;
5955;SDS011;3004;48.080;11.600;2023-09-19T14:36:09;78.50;;;2.43;;
5955;SDS011;3004;48.080;11.600;2023-09-19T14:38:38;76.60;;;2.10;;
5955;SDS011;3004;48.080;11.600;2023-09-19T14:41:07;76.47;;;2.10;;
5955;SDS011;3004;48.080;11.600;2023-09-19T14:43:38;76.40;;;2.20;;
5955;SDS011;3004;48.080;11.600;2023-09-19T14:46:05;77.17;;;2.20;;
5955;SDS011;3004;48.080;11.600;2023-09-19T14:48:39;76.20;;;2.00;;
5955;SDS011;3004;48.080;11.600;2023-09-19T14:51:10;76.90;;;2.03;;
5955;SDS011;3004;48.080;11.600;2023-09-19T14:53:46;76.20;;;2.00;;
5955;SDS011;3004;48.080;11.600;2023-09-19T14:56:14;76.97;;;2.10;;
5955;SDS011;3004;48.080;11.600;2023-09-19T14:58:43;76.47;;;2.40;;
5955;SDS011;3004;48.080;11.600;2023-09-19T15:01:23;76.60;;;2.20;;
5955;SDS011;3004;48.080;11.600;2023-09-19T15:03:50;76.40;;;2.00;;
5955;SDS011;3004;48.080;11.600;2023-09-19T15:06:16;76.30;;;2.30;;
5955;SDS011;3004;48.080;11.600;2023-09-19T15:08:45;76.50;;;2.10;;
5955;SDS011;3004;48.080;11.600;2023-09-19T15:11:17;76.40;;;2.20;;
5955;SDS011;3004;48.080;11.600;2023-09-19T15:13:45;77.43;;;3.40;;
5955;SDS011;3004;48.080;11.600;2023-09-19T15:16:13;76.77;;;2.47;;
5955;SDS011;3004;48.080;11.600;2023-09-19T15:18:41;76.20;;;2.00;;
5955;SDS011;3004;48.080;11.600;2023-09-19T15:21:12;76.17;;;2.00;;
5955;SDS011;3004;48.080;11.600;2023-09-19T15:23:40;76.77;;;2.60;;
5955;SDS011;3004;48.080;11.600;2023-09-19T15:26:11;76.53;;;2.20;;
5955;SDS011;3004;48.080;11.600;2023-09-19T15:28:45;76.27;;;2.10;;
5955;SDS011;3004;48.080;11.600;2023-09-19T15:31:13;76.70;;;2.20;;